Time;durP1;ratioP1;P1;durP2;ratioP2;P2;SDS_P1;SDS_P2;PMS_P1;PMS_P2;Temp;Humidity;BMP_temperature;BMP_pressure;BME280_temperature;BME280_humidity;BME280_pressure;Samples;Min_cycle;Max_cycle;Signal;HPM_P1;HPM_P2
2023/12/29 00:02:02;;;;;;;;;;;12.80;99.90;;;;;;5053133;28;20222;-86
2023/12/29 00:04:28;;;;;;;;;;;12.80;99.90;;;;;;5080373;28;19936;-85
2023/12/29 00:06:55;;;;;;;;;;;12.80;99.90;;;;;;5094994;28;19912;-85
2023/12/29 00:09:20;;;;;;;;;;;12.70;99.90;;;;;;5094415;28;19939;-85
2023/12/29 00:11:50;;;;;;;;;;;12.70;99.90;;;;;;5093160;28;20325;-85
2023/12/29 00:14:16;;;;;;;;;;;12.70;99.90;;;;;;5094856;28;19920;-85
2023/12/29 00:16:43;;;;;;;;;;;12.70;99.90;;;;;;5094559;28;20253;-85
2023/12/29 00:19:10;;;;;;;;;;;12.70;99.90;;;;;;5093109;28;19915;-86
2023/12/29 00:21:36;;;;;;;;;;;12.70;99.90;;;;;;5092837;28;19960;-85
2023/12/29 00:24:02;;;;;;;;;;;12.70;99.90;;;;;;5093057;28;19908;-86
2023/12/29 00:26:28;;;;;;;;;;;12.70;99.90;;;;;;5094580;28;20038;-84
2023/12/29 00:28:54;;;;;;;;;;;12.70;99.90;;;;;;5094464;28;19916;-85
2023/12/29 00:31:20;;;;;;;;;;;12.70;99.90;;;;;;5094635;28;19908;-86
2023/12/29 00:33:46;;;;;;;;;;;12.50;99.90;;;;;;5092984;28;19912;-85
2023/12/29 00:36:15;;;;;;;;;;;12.60;99.90;;;;;;5095028;28;19920;-86
2023/12/29 00:38:42;;;;;;;;;;;12.50;99.90;;;;;;5092553;28;19915;-86
2023/12/29 00:41:08;;;;;;;;;;;12.50;99.90;;;;;;5094196;28;19996;-86
2023/12/29 00:43:35;;;;;;;;;;;12.50;99.90;;;;;;5092711;28;19909;-85
2023/12/29 00:46:08;;;;;;;;;;;12.50;99.90;;;;;;5094155;28;19950;-85
2023/12/29 00:48:34;;;;;;;;;;;12.50;99.90;;;;;;5092696;28;19919;-84
2023/12/29 00:51:03;;;;;;;;;;;12.50;99.90;;;;;;5093878;28;19909;-85
2023/12/29 00:53:31;;;;;;;;;;;12.50;99.90;;;;;;5092169;28;20342;-85
2023/12/29 00:55:57;;;;;;;;;;;12.50;99.90;;;;;;5092121;28;19908;-87
2023/12/29 00:58:23;;;;;;;;;;;12.40;99.90;;;;;;5093886;28;20245;-85
2023/12/29 01:00:49;;;;;;;;;;;12.40;99.90;;;;;;5092597;28;19954;-86
2023/12/29 01:03:15;;;;;;;;;;;12.30;99.90;;;;;;5093750;28;19912;-85
2023/12/29 01:05:41;;;;;;;;;;;12.40;99.90;;;;;;5093239;28;20002;-85
2023/12/29 01:08:07;;;;;;;;;;;12.40;99.90;;;;;;5092699;28;20313;-86
2023/12/29 01:10:32;;;;;;;;;;;12.40;99.90;;;;;;5092070;28;19999;-85
2023/12/29 01:12:58;;;;;;;;;;;12.40;99.90;;;;;;5093250;28;20317;-85
2023/12/29 01:15:24;;;;;;;;;;;12.40;99.90;;;;;;5091610;28;19962;-86
2023/12/29 01:17:50;;;;;;;;;;;12.50;99.90;;;;;;5091456;28;20003;-86
2023/12/29 01:20:16;;;;;;;;;;;12.40;99.90;;;;;;5093084;28;19927;-86
2023/12/29 01:22:41;;;;;;;;;;;12.50;99.90;;;;;;5093146;28;19908;-86
2023/12/29 01:25:07;;;;;;;;;;;12.50;99.90;;;;;;5091351;28;19908;-86
2023/12/29 01:27:33;;;;;;;;;;;12.50;99.90;;;;;;5091168;28;19908;-85
2023/12/29 01:29:59;;;;;;;;;;;12.50;99.90;;;;;;5092896;28;19942;-85
2023/12/29 01:32:25;;;;;;;;;;;12.50;99.90;;;;;;5092933;28;19912;-85
2023/12/29 01:34:54;;;;;;;;;;;12.50;99.90;;;;;;5074448;28;19958;-86
2023/12/29 01:37:20;;;;;;;;;;;12.40;99.90;;;;;;5072688;28;19928;-85
2023/12/29 01:39:46;;;;;;;;;;;12.40;99.90;;;;;;5071156;28;20053;-84
2023/12/29 01:42:12;;;;;;;;;;;12.40;99.90;;;;;;5071122;28;19908;-85
2023/12/29 01:44:37;;;;;;;;;;;12.40;99.90;;;;;;5070995;28;20317;-86
2023/12/29 01:47:07;;;;;;;;;;;12.40;99.90;;;;;;5070931;28;20014;-85
2023/12/29 01:49:34;;;;;;;;;;;12.40;99.90;;;;;;5070961;28;19923;-86
2023/12/29 01:52:00;;;;;;;;;;;12.40;99.90;;;;;;5071082;28;19957;-85
2023/12/29 01:54:29;;;;;;;;;;;12.40;99.90;;;;;;5072280;28;19935;-86
2023/12/29 01:56:57;;;;;;;;;;;12.40;99.90;;;;;;5070929;28;20360;-85
2023/12/29 01:59:24;;;;;;;;;;;12.40;99.90;;;;;;5070949;28;20298;-85
2023/12/29 02:01:50;;;;;;;;;;;12.40;99.90;;;;;;5072648;28;19950;-84
2023/12/29 02:04:17;;;;;;;;;;;12.40;99.90;;;;;;5082680;28;19961;-84
2023/12/29 02:06:43;;;;;;;;;;;12.30;99.90;;;;;;5090849;28;19912;-85
2023/12/29 02:09:09;;;;;;;;;;;12.30;99.90;;;;;;5092175;28;19939;-86
2023/12/29 02:11:35;;;;;;;;;;;12.40;99.90;;;;;;5090984;28;19980;-85
2023/12/29 02:14:01;;;;;;;;;;;12.30;99.90;;;;;;5090722;28;19908;-85
2023/12/29 02:16:38;;;;;;;;;;;12.40;99.90;;;;;;5090802;28;20331;-85
2023/12/29 02:19:09;;;;;;;;;;;12.40;99.90;;;;;;5092141;28;20271;-85
2023/12/29 02:21:35;;;;;;;;;;;12.40;99.90;;;;;;5092605;28;19912;-86
2023/12/29 02:24:01;;;;;;;;;;;12.40;99.90;;;;;;5090366;28;19938;-84
2023/12/29 02:26:28;;;;;;;;;;;12.40;99.90;;;;;;5090544;28;19920;-85
2023/12/29 02:28:58;;;;;;;;;;;12.30;99.90;;;;;;5090420;28;19978;-86
2023/12/29 02:31:25;;;;;;;;;;;12.30;99.90;;;;;;5091733;28;19993;-85
2023/12/29 02:33:52;;;;;;;;;;;12.30;99.90;;;;;;5090201;28;19908;-86
2023/12/29 02:36:18;;;;;;;;;;;12.30;99.90;;;;;;5090249;28;20321;-85
2023/12/29 02:38:44;;;;;;;;;;;12.40;99.90;;;;;;5091830;28;19927;-85
2023/12/29 02:41:10;;;;;;;;;;;12.40;99.90;;;;;;5090430;28;19916;-86
2023/12/29 02:43:36;;;;;;;;;;;12.40;99.90;;;;;;5091842;28;19919;-85
2023/12/29 02:46:02;;;;;;;;;;;12.30;99.90;;;;;;5091859;28;20004;-85
2023/12/29 02:48:28;;;;;;;;;;;12.30;99.90;;;;;;5090272;28;19923;-85
2023/12/29 02:50:54;;;;;;;;;;;12.30;99.90;;;;;;5091672;28;20272;-86
2023/12/29 02:53:20;;;;;;;;;;;12.30;99.90;;;;;;5091822;28;20023;-86
2023/12/29 02:55:45;;;;;;;;;;;12.30;99.90;;;;;;5090067;28;20004;-85
2023/12/29 02:58:11;;;;;;;;;;;12.30;99.90;;;;;;5090113;28;19951;-86
2023/12/29 03:00:37;;;;;;;;;;;12.30;99.90;;;;;;5091487;28;19908;-86
2023/12/29 03:03:03;;;;;;;;;;;12.30;99.90;;;;;;5091285;28;19998;-86
2023/12/29 03:05:29;;;;;;;;;;;12.30;99.90;;;;;;5089976;28;20007;-85
2023/12/29 03:07:54;;;;;;;;;;;12.40;99.90;;;;;;5089743;28;19908;-86
2023/12/29 03:10:20;;;;;;;;;;;12.30;99.90;;;;;;5090901;28;19908;-85
2023/12/29 03:12:46;;;;;;;;;;;12.30;99.90;;;;;;5091247;28;19922;-85
2023/12/29 03:15:12;;;;;;;;;;;12.30;99.90;;;;;;5091260;28;19908;-83
2023/12/29 03:17:38;;;;;;;;;;;12.30;99.90;;;;;;5089546;28;20306;-86
2023/12/29 03:20:04;;;;;;;;;;;12.30;99.90;;;;;;5089622;28;19919;-86
2023/12/29 03:22:30;;;;;;;;;;;12.30;99.90;;;;;;5089715;28;19919;-85
2023/12/29 03:24:56;;;;;;;;;;;12.30;99.90;;;;;;5091057;28;19921;-85
2023/12/29 03:27:22;;;;;;;;;;;12.30;99.90;;;;;;5090946;28;19971;-85
2023/12/29 03:29:48;;;;;;;;;;;12.30;99.90;;;;;;5091090;28;20379;-85
2023/12/29 03:32:15;;;;;;;;;;;12.30;99.90;;;;;;5090244;28;20007;-86
2023/12/29 03:34:41;;;;;;;;;;;12.30;99.90;;;;;;5090966;28;19969;-86
2023/12/29 03:37:07;;;;;;;;;;;12.30;99.90;;;;;;5090609;28;20007;-85
2023/12/29 03:39:35;;;;;;;;;;;12.30;99.90;;;;;;5089231;28;19912;-85
2023/12/29 03:42:01;;;;;;;;;;;12.30;99.90;;;;;;5090588;28;19916;-85
2023/12/29 03:44:27;;;;;;;;;;;12.30;99.90;;;;;;5089430;28;19908;-85
2023/12/29 03:46:53;;;;;;;;;;;12.20;99.90;;;;;;5088850;28;19915;-86
2023/12/29 03:49:19;;;;;;;;;;;12.20;99.90;;;;;;5088821;28;19966;-82
2023/12/29 03:51:46;;;;;;;;;;;12.10;99.90;;;;;;5088745;28;19909;-85
2023/12/29 03:54:12;;;;;;;;;;;12.20;99.90;;;;;;5088949;28;19942;-86
2023/12/29 03:56:37;;;;;;;;;;;12.20;99.90;;;;;;5091497;28;20343;-85
2023/12/29 03:59:03;;;;;;;;;;;12.20;99.90;;;;;;5091558;28;20376;-86
2023/12/29 04:01:33;;;;;;;;;;;12.30;99.90;;;;;;5089929;28;19921;-85
2023/12/29 04:03:58;;;;;;;;;;;12.30;99.90;;;;;;5089894;28;19908;-85
2023/12/29 04:06:24;;;;;;;;;;;12.20;99.90;;;;;;5090038;28;19931;-85
2023/12/29 04:08:50;;;;;;;;;;;12.30;99.90;;;;;;5090128;28;20399;-85
2023/12/29 04:11:16;;;;;;;;;;;12.20;99.90;;;;;;5091672;28;19912;-85
2023/12/29 04:13:42;;;;;;;;;;;12.20;99.90;;;;;;5091817;28;19991;-86
2023/12/29 04:16:07;;;;;;;;;;;12.10;99.90;;;;;;5089838;28;19996;-86
2023/12/29 04:18:33;;;;;;;;;;;12.20;99.90;;;;;;5091112;28;19981;-85
2023/12/29 04:20:59;;;;;;;;;;;12.20;99.90;;;;;;5089619;28;19916;-85
2023/12/29 04:23:25;;;;;;;;;;;12.20;99.90;;;;;;5091092;28;19908;-86
2023/12/29 04:25:51;;;;;;;;;;;12.10;99.90;;;;;;5090542;28;19909;-86
2023/12/29 04:28:17;;;;;;;;;;;12.20;99.90;;;;;;5090806;28;19912;-85
2023/12/29 04:30:43;;;;;;;;;;;12.30;99.90;;;;;;5090582;28;19908;-85
2023/12/29 04:33:08;;;;;;;;;;;12.30;99.90;;;;;;5090463;28;19909;-85
2023/12/29 04:35:34;;;;;;;;;;;12.30;99.90;;;;;;5090371;28;19988;-86
2023/12/29 04:38:00;;;;;;;;;;;12.40;99.90;;;;;;5090323;28;19916;-85
2023/12/29 04:40:26;;;;;;;;;;;12.20;99.90;;;;;;5090167;28;19912;-85
2023/12/29 04:42:52;;;;;;;;;;;12.20;99.90;;;;;;5091674;28;19980;-86
2023/12/29 04:45:17;;;;;;;;;;;12.20;99.90;;;;;;5095359;28;19985;-87
2023/12/29 04:47:43;;;;;;;;;;;12.30;99.90;;;;;;5093972;28;20291;-86
2023/12/29 04:50:09;;;;;;;;;;;12.20;99.90;;;;;;5093967;28;19916;-86
2023/12/29 04:52:35;;;;;;;;;;;12.20;99.90;;;;;;5095840;28;20271;-85
2023/12/29 04:55:01;;;;;;;;;;;12.20;99.90;;;;;;5094726;28;20008;-86
2023/12/29 04:57:26;;;;;;;;;;;12.20;99.90;;;;;;5094648;28;20390;-85
2023/12/29 04:59:52;;;;;;;;;;;12.20;99.90;;;;;;5094449;28;20020;-86
2023/12/29 05:02:19;;;;;;;;;;;12.20;99.90;;;;;;5095497;28;19974;-85
2023/12/29 05:04:45;;;;;;;;;;;12.10;99.90;;;;;;5095661;28;20367;-86
2023/12/29 05:07:11;;;;;;;;;;;12.10;99.90;;;;;;5096075;28;19958;-85
2023/12/29 05:09:37;;;;;;;;;;;12.20;99.90;;;;;;5095595;28;19956;-85
2023/12/29 05:12:03;;;;;;;;;;;12.20;99.90;;;;;;5095744;28;19915;-84
2023/12/29 05:14:29;;;;;;;;;;;12.20;99.90;;;;;;5095472;28;19954;-85
2023/12/29 05:16:55;;;;;;;;;;;12.20;99.90;;;;;;5096196;28;19908;-85
2023/12/29 05:19:21;;;;;;;;;;;12.20;99.90;;;;;;5096739;28;19909;-85
2023/12/29 05:21:49;;;;;;;;;;;12.30;99.90;;;;;;5096236;28;19919;-84
2023/12/29 05:24:15;;;;;;;;;;;12.30;99.90;;;;;;5094679;28;19916;-85
2023/12/29 05:26:41;;;;;;;;;;;12.30;99.90;;;;;;5096224;28;19908;-85
2023/12/29 05:29:07;;;;;;;;;;;12.30;99.90;;;;;;5096101;28;19920;-85
2023/12/29 05:31:32;;;;;;;;;;;12.30;99.90;;;;;;5094845;28;19952;-85
2023/12/29 05:33:58;;;;;;;;;;;12.30;99.90;;;;;;5096166;28;20279;-85
2023/12/29 05:36:25;;;;;;;;;;;12.30;99.90;;;;;;5094364;28;19940;-85
2023/12/29 05:38:51;;;;;;;;;;;12.20;99.90;;;;;;5096137;28;20317;-85
2023/12/29 05:41:18;;;;;;;;;;;12.30;99.90;;;;;;5096095;28;19920;-85
2023/12/29 05:43:44;;;;;;;;;;;12.30;99.90;;;;;;5096336;28;20002;-85
2023/12/29 05:46:13;;;;;;;;;;;12.30;99.90;;;;;;5094639;28;20359;-85
2023/12/29 05:48:39;;;;;;;;;;;12.30;99.90;;;;;;5094442;28;20003;-85
2023/12/29 05:51:13;;;;;;;;;;;12.30;99.90;;;;;;5094328;28;19908;-85
2023/12/29 05:53:42;;;;;;;;;;;12.30;99.90;;;;;;5095931;28;19934;-85
2023/12/29 05:56:09;;;;;;;;;;;12.30;99.90;;;;;;5093556;28;19954;-85
2023/12/29 05:58:34;;;;;;;;;;;12.30;99.90;;;;;;5095420;28;19943;-85
2023/12/29 06:01:01;;;;;;;;;;;12.40;99.90;;;;;;5095260;28;19963;-85
2023/12/29 06:03:27;;;;;;;;;;;12.40;99.90;;;;;;5093904;28;20321;-84
2023/12/29 06:05:53;;;;;;;;;;;12.40;99.90;;;;;;5095167;28;19915;-85
2023/12/29 06:08:19;;;;;;;;;;;12.40;99.90;;;;;;5094366;28;19919;-85
2023/12/29 06:10:45;;;;;;;;;;;12.40;99.90;;;;;;5095088;28;19912;-85
2023/12/29 06:13:11;;;;;;;;;;;12.40;99.90;;;;;;5093614;28;19908;-86
2023/12/29 06:15:37;;;;;;;;;;;12.50;99.90;;;;;;5094818;28;19999;-84
2023/12/29 06:18:02;;;;;;;;;;;12.50;99.90;;;;;;5093393;28;20064;-85
2023/12/29 06:20:28;;;;;;;;;;;12.50;99.90;;;;;;5093413;28;19912;-85
2023/12/29 06:22:56;;;;;;;;;;;12.50;99.90;;;;;;5093256;28;19908;-85
2023/12/29 06:25:22;;;;;;;;;;;12.60;99.90;;;;;;5093169;28;19909;-84
2023/12/29 06:27:48;;;;;;;;;;;12.60;99.90;;;;;;5094150;28;20379;-85
2023/12/29 06:30:14;;;;;;;;;;;12.70;99.90;;;;;;5092840;28;19912;-86
2023/12/29 06:32:40;;;;;;;;;;;12.70;99.90;;;;;;5092930;28;19908;-87
2023/12/29 06:35:06;;;;;;;;;;;12.60;99.90;;;;;;5094183;28;20329;-86
2023/12/29 06:37:32;;;;;;;;;;;12.60;99.90;;;;;;5092564;28;20011;-86
2023/12/29 06:39:59;;;;;;;;;;;12.60;99.90;;;;;;5098070;28;19909;-87
2023/12/29 06:42:25;;;;;;;;;;;12.70;99.90;;;;;;5099369;28;20006;-85
2023/12/29 06:44:50;;;;;;;;;;;12.60;99.90;;;;;;5096031;28;19996;-86
2023/12/29 06:47:16;;;;;;;;;;;12.60;99.90;;;;;;5093004;28;19912;-86
2023/12/29 06:49:42;;;;;;;;;;;12.60;99.90;;;;;;5091670;28;19916;-85
2023/12/29 06:52:08;;;;;;;;;;;12.70;99.90;;;;;;5092241;28;19909;-86
2023/12/29 06:54:34;;;;;;;;;;;12.70;99.90;;;;;;5090891;28;19908;-85
2023/12/29 06:57:00;;;;;;;;;;;12.70;99.90;;;;;;5092026;28;19948;-85
2023/12/29 06:59:25;;;;;;;;;;;12.80;99.90;;;;;;5092081;28;19912;-84
2023/12/29 07:01:51;;;;;;;;;;;12.80;99.90;;;;;;5093097;28;19916;-86
2023/12/29 07:04:17;;;;;;;;;;;12.70;99.90;;;;;;5092718;28;19909;-85
2023/12/29 07:06:43;;;;;;;;;;;12.70;99.90;;;;;;5090734;28;20325;-84
2023/12/29 07:09:09;;;;;;;;;;;12.80;99.90;;;;;;5092690;28;20332;-86
2023/12/29 07:11:35;;;;;;;;;;;12.80;99.90;;;;;;5091470;28;20351;-85
2023/12/29 07:14:01;;;;;;;;;;;12.80;99.90;;;;;;5092739;28;19951;-85
2023/12/29 07:16:27;;;;;;;;;;;12.80;99.90;;;;;;5092465;28;20313;-85
2023/12/29 07:18:53;;;;;;;;;;;12.90;99.90;;;;;;5091903;28;19953;-86
2023/12/29 07:21:19;;;;;;;;;;;12.90;99.90;;;;;;5093133;28;19931;-86
2023/12/29 07:23:45;;;;;;;;;;;12.90;99.90;;;;;;5091610;28;20021;-85
2023/12/29 07:26:10;;;;;;;;;;;12.90;99.90;;;;;;5093050;28;19912;-85
2023/12/29 07:28:36;;;;;;;;;;;12.90;99.90;;;;;;5092882;28;19923;-85
2023/12/29 07:31:02;;;;;;;;;;;13.00;99.90;;;;;;5091739;28;19962;-86
2023/12/29 07:33:28;;;;;;;;;;;13.00;99.90;;;;;;5093370;28;19966;-85
2023/12/29 07:35:54;;;;;;;;;;;13.00;99.90;;;;;;5092804;28;19955;-86
2023/12/29 07:38:20;;;;;;;;;;;13.10;99.90;;;;;;5093337;28;19916;-85
2023/12/29 07:40:47;;;;;;;;;;;13.10;99.90;;;;;;5091589;28;20371;-86
2023/12/29 07:43:13;;;;;;;;;;;13.20;99.90;;;;;;5091832;28;20361;-86
2023/12/29 07:45:39;;;;;;;;;;;13.20;99.90;;;;;;5093084;28;19915;-86
2023/12/29 07:48:05;;;;;;;;;;;13.20;99.90;;;;;;5092797;28;19980;-85
2023/12/29 07:50:32;;;;;;;;;;;13.30;99.90;;;;;;5091800;28;19912;-85
2023/12/29 07:53:02;;;;;;;;;;;13.30;99.90;;;;;;5093367;28;19916;-85
2023/12/29 07:55:29;;;;;;;;;;;13.30;99.90;;;;;;5092230;28;19998;-84
2023/12/29 07:57:54;;;;;;;;;;;13.40;99.90;;;;;;5093422;28;19909;-84
2023/12/29 08:00:21;;;;;;;;;;;13.50;99.90;;;;;;5093249;28;19908;-85
2023/12/29 08:02:47;;;;;;;;;;;13.50;99.90;;;;;;5091475;28;19942;-85
2023/12/29 08:05:15;;;;;;;;;;;13.50;99.90;;;;;;5092614;28;19908;-85
2023/12/29 08:07:41;;;;;;;;;;;13.60;99.90;;;;;;5091364;28;20019;-86
2023/12/29 08:10:07;;;;;;;;;;;13.60;99.90;;;;;;5091681;28;20319;-85
2023/12/29 08:12:33;;;;;;;;;;;13.70;99.90;;;;;;5092153;28;19908;-85
2023/12/29 08:15:00;;;;;;;;;;;13.70;99.90;;;;;;5091529;28;19915;-85
2023/12/29 08:17:26;;;;;;;;;;;13.80;99.90;;;;;;5093430;28;19931;-84
2023/12/29 08:19:52;;;;;;;;;;;13.80;99.90;;;;;;5097442;28;19908;-85
2023/12/29 08:22:19;;;;;;;;;;;13.80;99.90;;;;;;5096563;28;19908;-85
2023/12/29 08:24:45;;;;;;;;;;;13.80;99.90;;;;;;5095485;28;19908;-85
2023/12/29 08:27:14;;;;;;;;;;;13.90;99.90;;;;;;5095038;28;19931;-85
2023/12/29 08:29:40;;;;;;;;;;;14.00;99.90;;;;;;5095509;28;19923;-86
2023/12/29 08:32:06;;;;;;;;;;;14.20;99.90;;;;;;5094770;28;19937;-86
2023/12/29 08:34:32;;;;;;;;;;;14.40;99.90;;;;;;5094803;28;19908;-86
2023/12/29 08:36:57;;;;;;;;;;;14.60;99.90;;;;;;5096409;28;19920;-86
2023/12/29 08:39:24;;;;;;;;;;;14.90;99.90;;;;;;5094551;28;20384;-86
2023/12/29 08:41:50;;;;;;;;;;;15.10;99.90;;;;;;5095029;28;19908;-86
2023/12/29 08:44:15;;;;;;;;;;;15.20;99.90;;;;;;5094587;28;20249;-85
2023/12/29 08:46:41;;;;;;;;;;;15.40;99.90;;;;;;5095867;28;20030;-86
2023/12/29 08:49:07;;;;;;;;;;;15.40;99.90;;;;;;5095203;28;19924;-85
2023/12/29 08:51:33;;;;;;;;;;;15.30;99.90;;;;;;5093507;28;19909;-84
2023/12/29 08:53:59;;;;;;;;;;;15.30;99.90;;;;;;5095706;28;19908;-85
2023/12/29 08:56:25;;;;;;;;;;;15.40;99.90;;;;;;5093408;28;19909;-84
2023/12/29 08:58:52;;;;;;;;;;;15.40;99.90;;;;;;5095892;28;19995;-86
2023/12/29 09:01:19;;;;;;;;;;;15.70;99.90;;;;;;5093225;28;19959;-85
2023/12/29 09:03:45;;;;;;;;;;;15.90;99.90;;;;;;5092839;28;19913;-85
2023/12/29 09:06:11;;;;;;;;;;;16.10;99.90;;;;;;5094813;28;19909;-82
2023/12/29 09:08:37;;;;;;;;;;;16.30;99.90;;;;;;5092691;28;20009;-84
2023/12/29 09:11:04;;;;;;;;;;;16.50;99.90;;;;;;5092754;28;19908;-85
2023/12/29 09:13:30;;;;;;;;;;;16.50;99.90;;;;;;5093303;28;19908;-84
2023/12/29 09:15:55;;;;;;;;;;;16.70;99.90;;;;;;5095447;28;19919;-86
2023/12/29 09:18:21;;;;;;;;;;;16.60;99.90;;;;;;5093858;28;19908;-86
2023/12/29 09:20:47;;;;;;;;;;;16.60;99.90;;;;;;5094293;28;20011;-86
2023/12/29 09:23:13;;;;;;;;;;;16.70;99.90;;;;;;5094084;28;20360;-86
2023/12/29 09:25:41;;;;;;;;;;;17.00;99.90;;;;;;5093792;28;19912;-82
2023/12/29 09:28:07;;;;;;;;;;;17.20;99.90;;;;;;5095568;28;20422;-86
2023/12/29 09:30:33;;;;;;;;;;;17.20;99.90;;;;;;5093996;28;19908;-86
2023/12/29 09:32:58;;;;;;;;;;;16.90;99.90;;;;;;5095125;28;19908;-85
2023/12/29 09:35:24;;;;;;;;;;;16.80;99.90;;;;;;5095742;28;20050;-87
2023/12/29 09:37:50;;;;;;;;;;;16.80;99.90;;;;;;5093956;28;20363;-87
2023/12/29 09:40:16;;;;;;;;;;;16.80;99.90;;;;;;5095224;28;20378;-87
2023/12/29 09:42:43;;;;;;;;;;;17.00;99.90;;;;;;5094681;28;19908;-87
2023/12/29 09:45:10;;;;;;;;;;;16.80;99.90;;;;;;5095109;28;20305;-87
2023/12/29 09:47:38;;;;;;;;;;;16.90;99.90;;;;;;5093533;28;19915;-89
2023/12/29 09:50:05;;;;;;;;;;;17.10;99.90;;;;;;5096416;28;19963;-87
2023/12/29 09:52:30;;;;;;;;;;;17.20;99.90;;;;;;5093932;28;20355;-87
2023/12/29 09:54:57;;;;;;;;;;;17.30;99.90;;;;;;5093356;28;19916;-87
2023/12/29 09:57:24;;;;;;;;;;;17.40;99.90;;;;;;5093944;28;19912;-87
2023/12/29 09:59:54;;;;;;;;;;;17.30;99.90;;;;;;5093527;28;19946;-87
2023/12/29 10:02:22;;;;;;;;;;;17.10;99.90;;;;;;5093482;28;19908;-87
2023/12/29 10:04:48;;;;;;;;;;;17.20;99.90;;;;;;5094762;28;19999;-87
2023/12/29 10:07:19;;;;;;;;;;;17.10;99.90;;;;;;5093843;28;19920;-87
2023/12/29 10:09:45;;;;;;;;;;;17.00;99.90;;;;;;5095960;28;19916;-86
2023/12/29 10:12:12;;;;;;;;;;;16.90;99.90;;;;;;5094167;28;19931;-86
2023/12/29 10:14:47;;;;;;;;;;;16.60;99.90;;;;;;5094657;28;20273;-85
2023/12/29 10:17:28;;;;;;;;;;;16.60;99.90;;;;;;5093346;28;20375;-87
2023/12/29 10:20:00;;;;;;;;;;;16.90;99.90;;;;;;5095135;28;19915;-87
2023/12/29 10:22:29;;;;;;;;;;;17.00;99.90;;;;;;5096026;28;19908;-87
2023/12/29 10:24:56;;;;;;;;;;;17.10;99.90;;;;;;5093928;28;20360;-87
2023/12/29 10:27:22;;;;;;;;;;;17.20;99.90;;;;;;5095801;28;19995;-87
2023/12/29 10:29:49;;;;;;;;;;;17.40;99.90;;;;;;5093793;28;19969;-86
2023/12/29 10:32:16;;;;;;;;;;;17.00;99.90;;;;;;5094483;28;19931;-87
2023/12/29 10:34:42;;;;;;;;;;;16.80;99.90;;;;;;5093455;28;19908;-87
2023/12/29 10:37:14;;;;;;;;;;;17.10;99.90;;;;;;5092631;28;19926;-87
2023/12/29 10:39:55;;;;;;;;;;;17.20;99.90;;;;;;5094149;28;19973;-87
2023/12/29 10:42:21;;;;;;;;;;;16.90;99.90;;;;;;5092624;28;19909;-87
2023/12/29 10:44:47;;;;;;;;;;;17.00;99.90;;;;;;5092603;28;19912;-85
2023/12/29 10:47:14;;;;;;;;;;;17.30;99.90;;;;;;5092613;28;19999;-87
2023/12/29 10:49:40;;;;;;;;;;;17.20;99.90;;;;;;5093944;28;19916;-87
2023/12/29 10:52:14;;;;;;;;;;;16.80;99.90;;;;;;5092909;28;20018;-87
2023/12/29 10:54:40;;;;;;;;;;;16.80;99.90;;;;;;5094362;28;20008;-87
2023/12/29 10:57:07;;;;;;;;;;;17.10;99.90;;;;;;5092690;28;19908;-86
2023/12/29 10:59:33;;;;;;;;;;;17.20;99.90;;;;;;5093297;28;20272;-87
2023/12/29 11:02:00;;;;;;;;;;;17.20;99.90;;;;;;5094561;28;19908;-85
2023/12/29 11:04:26;;;;;;;;;;;17.40;99.90;;;;;;5093269;28;19927;-87
2023/12/29 11:06:52;;;;;;;;;;;17.50;99.90;;;;;;5093175;28;19937;-87
2023/12/29 11:09:28;;;;;;;;;;;17.30;99.90;;;;;;5092915;28;19916;-87
2023/12/29 11:11:56;;;;;;;;;;;17.10;99.90;;;;;;5092601;28;20001;-87
2023/12/29 11:14:25;;;;;;;;;;;17.00;99.90;;;;;;5092153;28;21634;-86
2023/12/29 11:16:51;;;;;;;;;;;17.10;99.90;;;;;;5093047;28;19908;-87
2023/12/29 11:19:18;;;;;;;;;;;17.30;99.90;;;;;;5093815;28;19995;-87
2023/12/29 11:21:44;;;;;;;;;;;17.20;99.90;;;;;;5095514;28;19915;-87
2023/12/29 11:24:10;;;;;;;;;;;17.10;99.90;;;;;;5095005;28;20375;-87
2023/12/29 11:26:36;;;;;;;;;;;17.00;99.90;;;;;;5093116;28;19908;-87
2023/12/29 11:29:04;;;;;;;;;;;17.00;99.90;;;;;;5093297;28;19919;-87
2023/12/29 11:31:30;;;;;;;;;;;17.10;99.90;;;;;;5094514;28;19943;-87
2023/12/29 11:34:00;;;;;;;;;;;17.40;99.90;;;;;;5083761;28;19916;-88
2023/12/29 11:36:30;;;;;;;;;;;17.60;99.90;;;;;;5074727;28;20042;-87
2023/12/29 11:39:02;;;;;;;;;;;17.80;99.90;;;;;;5073680;28;20371;-88
2023/12/29 11:41:40;;;;;;;;;;;18.00;99.90;;;;;;5073259;28;19916;-87
2023/12/29 11:44:06;;;;;;;;;;;18.40;99.90;;;;;;5073372;28;19912;-87
2023/12/29 11:46:33;;;;;;;;;;;18.60;99.90;;;;;;5072961;28;19915;-87
2023/12/29 11:49:04;;;;;;;;;;;18.80;99.90;;;;;;5073837;28;20015;-87
2023/12/29 11:51:33;;;;;;;;;;;19.00;99.90;;;;;;5073583;28;20230;-88
2023/12/29 11:53:59;;;;;;;;;;;19.00;99.90;;;;;;5077338;28;19931;-87
2023/12/29 11:56:30;;;;;;;;;;;19.00;99.90;;;;;;5077799;28;20349;-85
2023/12/29 11:58:56;;;;;;;;;;;18.80;99.90;;;;;;5076989;28;20273;-87
2023/12/29 12:01:42;;;;;;;;;;;18.70;99.90;;;;;;5077575;28;19934;-88
2023/12/29 12:04:26;;;;;;;;;;;18.70;99.90;;;;;;5088205;28;20004;-87
2023/12/29 12:06:51;;;;;;;;;;;18.60;99.90;;;;;;5097401;28;20011;-87
2023/12/29 12:09:24;;;;;;;;;;;18.50;99.90;;;;;;5097365;28;20387;-87
2023/12/29 12:11:50;;;;;;;;;;;18.60;99.90;;;;;;5096525;28;20002;-87
2023/12/29 12:14:34;;;;;;;;;;;18.40;99.90;;;;;;5095891;28;20355;-88
2023/12/29 12:17:01;;;;;;;;;;;18.30;99.90;;;;;;5098138;28;19957;-87
2023/12/29 12:19:29;;;;;;;;;;;18.20;99.90;;;;;;5098133;28;19909;-87
2023/12/29 12:21:56;;;;;;;;;;;18.20;99.90;;;;;;5096334;28;20011;-88
2023/12/29 12:24:22;;;;;;;;;;;18.30;99.90;;;;;;5098386;28;19955;-87
2023/12/29 12:26:49;;;;;;;;;;;18.20;99.90;;;;;;5097242;28;20379;-88
2023/12/29 12:29:15;;;;;;;;;;;18.20;99.90;;;;;;5097819;28;19912;-87
2023/12/29 12:31:53;;;;;;;;;;;18.30;99.90;;;;;;5096747;28;19915;-87
2023/12/29 12:34:19;;;;;;;;;;;18.30;99.90;;;;;;5096329;28;19908;-87
2023/12/29 12:36:52;;;;;;;;;;;18.40;99.90;;;;;;5097209;28;19924;-88
2023/12/29 12:39:18;;;;;;;;;;;18.40;99.90;;;;;;5096399;28;19918;-86
2023/12/29 12:41:44;;;;;;;;;;;18.40;99.90;;;;;;5097412;28;19908;-88
2023/12/29 12:44:14;;;;;;;;;;;18.50;99.90;;;;;;5096029;28;19991;-87
2023/12/29 12:46:41;;;;;;;;;;;18.60;99.90;;;;;;5097486;28;19908;-87
2023/12/29 12:49:07;;;;;;;;;;;18.60;99.90;;;;;;5096095;28;20015;-87
2023/12/29 12:51:33;;;;;;;;;;;18.70;99.90;;;;;;5096011;28;19918;-87
2023/12/29 12:54:00;;;;;;;;;;;18.80;99.90;;;;;;5095696;28;20302;-87
2023/12/29 12:56:30;;;;;;;;;;;19.00;99.90;;;;;;5095469;28;19908;-88
2023/12/29 12:58:57;;;;;;;;;;;19.00;99.90;;;;;;5097335;28;19923;-88
2023/12/29 13:01:23;;;;;;;;;;;19.00;99.90;;;;;;5097878;28;20014;-88
2023/12/29 13:03:49;;;;;;;;;;;19.10;99.90;;;;;;5096606;28;19919;-87
2023/12/29 13:06:16;;;;;;;;;;;19.40;99.90;;;;;;5096518;28;20249;-88
2023/12/29 13:08:42;;;;;;;;;;;19.40;99.90;;;;;;5095570;28;19912;-88
2023/12/29 13:11:08;;;;;;;;;;;19.50;99.90;;;;;;5096878;28;19912;-87
2023/12/29 13:13:42;;;;;;;;;;;19.60;99.90;;;;;;5095486;28;19908;-87
2023/12/29 13:16:08;;;;;;;;;;;19.70;99.90;;;;;;5095972;28;19912;-87
2023/12/29 13:18:34;;;;;;;;;;;19.50;99.90;;;;;;5096100;28;20272;-89
2023/12/29 13:21:06;;;;;;;;;;;19.40;99.90;;;;;;5097068;28;19915;-88
2023/12/29 13:23:33;;;;;;;;;;;19.50;99.90;;;;;;5095926;28;19908;-87
2023/12/29 13:26:01;;;;;;;;;;;19.40;99.90;;;;;;5096906;28;19916;-89
2023/12/29 13:28:28;;;;;;;;;;;19.40;99.90;;;;;;5096957;28;19912;-88
2023/12/29 13:30:54;;;;;;;;;;;19.40;99.90;;;;;;5095764;28;20269;-88
2023/12/29 13:33:34;;;;;;;;;;;19.40;99.90;;;;;;5095057;28;19908;-87
2023/12/29 13:36:19;;;;;;;;;;;19.20;99.90;;;;;;5096542;28;19917;-89
2023/12/29 13:38:51;;;;;;;;;;;19.10;99.90;;;;;;5096149;28;19912;-87
2023/12/29 13:41:19;;;;;;;;;;;19.20;99.90;;;;;;5095532;28;19908;-87
2023/12/29 13:43:45;;;;;;;;;;;19.20;99.90;;;;;;5095092;28;20340;-87
2023/12/29 13:46:12;;;;;;;;;;;19.20;99.90;;;;;;5096389;28;19908;-87
2023/12/29 13:48:39;;;;;;;;;;;19.20;99.90;;;;;;5094799;28;19920;-87
2023/12/29 13:51:04;;;;;;;;;;;19.10;99.90;;;;;;5094094;28;19918;-87
2023/12/29 13:53:30;;;;;;;;;;;19.10;99.90;;;;;;5096285;28;19951;-83
2023/12/29 13:56:09;;;;;;;;;;;19.10;99.90;;;;;;5094215;28;20010;-85
2023/12/29 13:58:35;;;;;;;;;;;19.10;99.90;;;;;;5094186;28;20014;-88
2023/12/29 14:01:01;;;;;;;;;;;19.10;99.90;;;;;;5094110;28;20372;-87
2023/12/29 14:03:28;;;;;;;;;;;19.10;99.90;;;;;;5095979;28;19937;-87
2023/12/29 14:05:59;;;;;;;;;;;19.10;99.90;;;;;;5093591;28;19961;-87
2023/12/29 14:08:27;;;;;;;;;;;18.90;99.90;;;;;;5094315;28;19918;-84
2023/12/29 14:10:53;;;;;;;;;;;18.90;99.90;;;;;;5095682;28;19919;-87
2023/12/29 14:13:19;;;;;;;;;;;19.00;99.90;;;;;;5093672;28;19998;-87
2023/12/29 14:15:51;;;;;;;;;;;18.90;99.90;;;;;;5093523;28;19915;-88